createdAt,value
2022-12-16T00:01:34.699Z,-3.40
2022-12-16T00:04:01.621Z,-3.40
2022-12-16T00:06:32.361Z,-3.30
2022-12-16T00:09:02.265Z,-3.20
2022-12-16T00:11:32.065Z,-3.30
2022-12-16T00:13:58.901Z,-3.40
2022-12-16T00:16:25.903Z,-3.30
2022-12-16T00:18:52.838Z,-3.60
2022-12-16T00:21:28.676Z,-3.60
2022-12-16T00:23:57.084Z,-3.70
2022-12-16T00:26:24.621Z,-3.50
2022-12-16T00:28:51.625Z,-3.60
2022-12-16T00:31:19.474Z,-3.70
2022-12-16T00:33:46.417Z,-3.60
2022-12-16T00:36:13.402Z,-3.50
2022-12-16T00:38:40.347Z,-3.60
2022-12-16T00:41:08.200Z,-3.60
2022-12-16T00:43:35.472Z,-3.60
2022-12-16T00:46:02.561Z,-3.70
2022-12-16T00:48:29.660Z,-3.50
2022-12-16T00:50:56.510Z,-3.60
2022-12-16T00:53:25.042Z,-3.60
2022-12-16T00:56:01.186Z,-3.70
2022-12-16T00:58:28.007Z,-3.70
2022-12-16T01:00:55.045Z,-3.80
2022-12-16T01:03:22.334Z,-3.80
2022-12-16T01:05:49.777Z,-3.90
2022-12-16T01:08:16.725Z,-3.80
2022-12-16T01:10:49.775Z,-3.90
2022-12-16T01:13:17.470Z,-3.70
2022-12-16T01:15:44.369Z,-3.70
2022-12-16T01:18:11.187Z,-3.70
2022-12-16T01:20:38.808Z,-3.70
2022-12-16T01:23:05.724Z,-3.90
2022-12-16T01:25:32.611Z,-3.80
2022-12-16T01:27:59.502Z,-3.70
2022-12-16T01:30:26.809Z,-3.70
2022-12-16T01:32:53.684Z,-3.60
2022-12-16T01:35:51.591Z,-3.90
2022-12-16T01:38:07.764Z,-3.90
2022-12-16T01:40:35.171Z,-4.00
2022-12-16T01:43:02.133Z,-4.10
2022-12-16T01:45:34.761Z,-3.90
2022-12-16T01:48:16.003Z,-3.90
2022-12-16T01:50:43.128Z,-3.80
2022-12-16T01:53:10.036Z,-3.90
2022-12-16T01:55:46.081Z,-3.80
2022-12-16T01:58:20.878Z,-3.70
2022-12-16T02:00:48.118Z,-3.60
2022-12-16T02:03:16.220Z,-3.80
2022-12-16T02:05:44.905Z,-3.90
2022-12-16T02:08:14.920Z,-3.60
2022-12-16T02:10:44.921Z,-3.60
2022-12-16T02:13:30.747Z,-3.90
2022-12-16T02:16:18.811Z,-4.10
2022-12-16T02:19:33.110Z,-4.10
2022-12-16T02:22:33.848Z,-3.80
2022-12-16T02:25:37.962Z,-3.90
2022-12-16T02:28:27.167Z,-3.80
2022-12-16T02:31:14.157Z,-4.00
2022-12-16T02:33:59.402Z,-3.90
2022-12-16T02:36:44.748Z,-3.80
2022-12-16T02:39:36.275Z,-4.10
2022-12-16T02:42:11.888Z,-4.10
2022-12-16T02:44:44.746Z,-4.00
2022-12-16T02:47:11.652Z,-4.00
2022-12-16T02:49:46.361Z,-4.00
2022-12-16T02:52:14.294Z,-4.10
2022-12-16T02:54:42.217Z,-4.00
2022-12-16T02:57:20.820Z,-4.00
2022-12-16T03:00:12.993Z,-4.10
2022-12-16T03:03:07.546Z,-4.30
2022-12-16T03:05:36.320Z,-4.20
2022-12-16T03:08:12.235Z,-4.00
2022-12-16T03:10:44.270Z,-4.00
2022-12-16T03:13:14.344Z,-4.20
2022-12-16T03:15:43.759Z,-4.20
2022-12-16T03:18:13.045Z,-4.10
2022-12-16T03:20:48.435Z,-4.00
2022-12-16T03:23:20.860Z,-4.40
2022-12-16T03:25:50.706Z,-4.10
2022-12-16T03:28:33.033Z,-4.00
2022-12-16T03:31:17.696Z,-4.00
2022-12-16T03:33:57.427Z,-4.20
2022-12-16T03:36:26.959Z,-4.30
2022-12-16T03:38:55.574Z,-4.20
2022-12-16T03:41:24.221Z,-4.30
2022-12-16T03:43:52.287Z,-4.00
2022-12-16T03:46:19.951Z,-4.00
2022-12-16T03:48:51.558Z,-4.60
2022-12-16T03:51:21.419Z,-4.20
2022-12-16T03:53:48.342Z,-4.30
2022-12-16T03:56:16.065Z,-4.40
2022-12-16T03:58:43.128Z,-4.30
2022-12-16T04:01:10.763Z,-4.30
2022-12-16T04:03:38.347Z,-4.40
2022-12-16T04:06:05.768Z,-4.30
2022-12-16T04:08:32.699Z,-4.10
2022-12-16T04:11:18.136Z,-4.30
2022-12-16T04:14:03.662Z,-4.30
2022-12-16T04:16:50.339Z,-4.10
2022-12-16T04:19:45.649Z,-4.30
2022-12-16T04:22:33.585Z,-4.60
2022-12-16T04:25:07.618Z,-4.40
2022-12-16T04:27:35.162Z,-4.50
2022-12-16T04:30:20.706Z,-4.30
2022-12-16T04:33:38.804Z,-4.60
2022-12-16T04:36:25.935Z,-4.30
2022-12-16T04:39:11.483Z,-4.30
2022-12-16T04:41:56.888Z,-4.20
2022-12-16T04:44:42.050Z,-4.40
2022-12-16T04:47:27.728Z,-4.20
2022-12-16T04:50:14.329Z,-4.30
2022-12-16T04:52:59.953Z,-4.30
2022-12-16T04:55:47.781Z,-4.30
2022-12-16T04:58:39.902Z,-3.90
2022-12-16T05:01:25.490Z,-4.20
2022-12-16T05:04:10.964Z,-4.20
2022-12-16T05:06:56.168Z,-4.40
2022-12-16T05:09:41.537Z,-4.00
2022-12-16T05:12:27.196Z,-4.10
2022-12-16T05:15:14.682Z,-4.00
2022-12-16T05:18:00.260Z,-4.10
2022-12-16T05:20:46.073Z,-4.20
2022-12-16T05:23:31.756Z,-3.90
2022-12-16T05:26:17.656Z,-3.80
2022-12-16T05:32:03.544Z,-4.10
2022-12-16T05:34:49.011Z,-4.30
2022-12-16T05:37:34.383Z,-4.10
2022-12-16T05:40:24.563Z,-4.20
2022-12-16T05:43:16.371Z,-4.00
2022-12-16T05:46:02.444Z,-4.10
2022-12-16T05:48:48.146Z,-4.40
2022-12-16T05:51:33.641Z,-4.60
2022-12-16T05:54:19.511Z,-4.50
2022-12-16T05:57:04.829Z,-4.20
2022-12-16T05:59:50.818Z,-4.30
2022-12-16T06:02:36.273Z,-4.30
2022-12-16T06:05:22.563Z,-4.10
2022-12-16T06:08:19.748Z,-4.20
2022-12-16T06:11:05.022Z,-4.40
2022-12-16T06:13:53.555Z,-4.40
2022-12-16T06:16:41.979Z,-4.30
2022-12-16T06:19:27.590Z,-4.30
2022-12-16T06:22:13.053Z,-4.40
2022-12-16T06:24:58.285Z,-4.50
2022-12-16T06:27:43.559Z,-4.50
2022-12-16T06:30:29.598Z,-4.50
2022-12-16T06:33:14.856Z,-4.60
2022-12-16T06:36:00.738Z,-4.50
2022-12-16T06:38:45.919Z,-4.70
2022-12-16T06:41:31.268Z,-4.70
2022-12-16T06:44:16.693Z,-4.90
2022-12-16T06:47:02.098Z,-4.70
2022-12-16T06:49:47.746Z,-4.90
2022-12-16T06:52:33.037Z,-4.90
2022-12-16T06:55:25.878Z,-4.80
2022-12-16T06:58:20.525Z,-4.80
2022-12-16T07:01:06.007Z,-5.00
2022-12-16T07:03:51.963Z,-4.90
2022-12-16T07:06:37.545Z,-4.80
2022-12-16T07:09:36.215Z,-4.90
2022-12-16T07:12:21.610Z,-5.10
2022-12-16T07:15:07.267Z,-4.80
2022-12-16T07:17:52.777Z,-4.60
2022-12-16T07:20:38.451Z,-4.40
2022-12-16T07:23:23.779Z,-4.60
2022-12-16T07:26:09.644Z,-4.60
2022-12-16T07:28:55.651Z,-4.20
2022-12-16T07:31:41.224Z,-4.70
2022-12-16T07:34:26.876Z,-4.70
2022-12-16T07:37:12.269Z,-4.70
2022-12-16T07:39:57.743Z,-4.70
2022-12-16T07:42:43.050Z,-4.70
2022-12-16T07:45:29.378Z,-4.10
2022-12-16T07:48:15.032Z,-4.50
2022-12-16T07:51:00.400Z,-3.80
2022-12-16T07:53:45.718Z,-4.30
2022-12-16T07:56:31.264Z,-4.20
2022-12-16T07:59:16.768Z,-4.10
2022-12-16T08:02:02.058Z,-3.90
2022-12-16T08:04:47.575Z,-4.10
2022-12-16T08:07:32.978Z,-4.10
2022-12-16T08:10:18.243Z,-3.90
2022-12-16T08:13:03.784Z,-4.10
2022-12-16T08:15:49.200Z,-4.20
2022-12-16T08:18:34.574Z,-4.00
2022-12-16T08:21:19.967Z,-3.80
2022-12-16T08:24:05.226Z,-3.70
2022-12-16T08:26:50.761Z,-3.60
2022-12-16T08:29:44.153Z,-3.30
2022-12-16T08:32:30.724Z,-3.30
2022-12-16T08:35:16.051Z,-3.60
2022-12-16T08:38:01.302Z,-3.60
2022-12-16T08:40:46.764Z,-3.50
2022-12-16T08:43:32.461Z,-3.50
2022-12-16T08:46:18.557Z,-3.40
2022-12-16T08:49:04.433Z,-3.50
2022-12-16T08:51:50.960Z,-3.50
2022-12-16T08:54:37.827Z,-3.20
2022-12-16T08:57:23.106Z,-3.20
2022-12-16T09:00:08.655Z,-3.40
2022-12-16T09:02:55.447Z,-3.30
2022-12-16T09:05:41.696Z,-3.40
2022-12-16T09:08:27.030Z,-3.40
2022-12-16T09:11:12.285Z,-3.30
2022-12-16T09:13:57.935Z,-3.20
2022-12-16T09:16:43.315Z,-3.20
2022-12-16T09:19:29.696Z,-3.00
2022-12-16T09:22:15.064Z,-1.10
2022-12-16T09:25:00.415Z,-3.10
2022-12-16T09:27:46.173Z,-3.20
2022-12-16T09:30:31.879Z,-2.90
2022-12-16T09:33:27.978Z,-2.90
2022-12-16T09:36:13.894Z,-3.20
2022-12-16T09:38:59.430Z,-3.10
2022-12-16T09:41:59.039Z,-3.10
2022-12-16T09:45:06.019Z,-3.10
2022-12-16T09:48:05.462Z,-2.70
2022-12-16T09:50:51.774Z,-2.70
2022-12-16T09:53:41.204Z,-2.70
2022-12-16T09:56:46.650Z,-2.50
2022-12-16T09:59:35.733Z,-2.60
2022-12-16T10:02:21.842Z,-2.60
2022-12-16T10:08:18.835Z,-2.50
2022-12-16T10:11:21.098Z,-2.70
2022-12-16T10:14:25.656Z,-2.60
2022-12-16T10:17:10.891Z,-2.40
2022-12-16T10:20:35.039Z,-2.60
2022-12-16T10:23:34.872Z,-2.50
2022-12-16T10:27:08.554Z,-2.20
2022-12-16T10:30:01.707Z,-2.00
2022-12-16T10:32:56.531Z,-2.20
2022-12-16T10:35:46.828Z,-2.10
2022-12-16T10:38:55.222Z,-2.10
2022-12-16T10:42:00.079Z,-2.10
2022-12-16T10:44:59.680Z,-2.20
2022-12-16T10:47:45.261Z,-2.20
2022-12-16T10:50:34.433Z,-2.20
2022-12-16T10:53:33.087Z,-2.10
2022-12-16T10:56:46.638Z,-1.70
2022-12-16T10:59:32.837Z,-1.90
2022-12-16T11:02:48.851Z,-1.90
2022-12-16T11:05:54.995Z,-1.80
2022-12-16T11:08:43.405Z,-1.80
2022-12-16T11:15:27.743Z,-1.60
2022-12-16T11:17:51.005Z,-1.80
2022-12-16T11:20:42.408Z,-1.70
2022-12-16T11:23:30.637Z,-1.80
2022-12-16T11:26:33.141Z,-1.70
2022-12-16T11:35:32.229Z,-1.50
2022-12-16T11:38:19.547Z,-1.50
2022-12-16T11:41:05.955Z,-1.50
2022-12-16T11:43:51.743Z,-1.50
2022-12-16T11:46:49.837Z,-1.40
2022-12-16T11:49:54.163Z,-1.40
2022-12-16T11:52:43.507Z,-1.50
2022-12-16T11:56:07.685Z,-1.40
2022-12-16T11:59:11.336Z,-1.50
2022-12-16T12:02:23.219Z,-1.50
2022-12-16T12:05:09.900Z,-1.60
2022-12-16T12:08:10.144Z,-1.40
2022-12-16T12:11:07.709Z,-1.30
2022-12-16T12:14:16.108Z,-1.20
2022-12-16T12:17:24.422Z,-1.20
2022-12-16T12:20:21.204Z,-1.00
2022-12-16T12:23:07.262Z,-1.00
2022-12-16T12:26:21.577Z,-0.90
2022-12-16T12:29:47.648Z,-0.70
2022-12-16T12:32:54.930Z,-0.80
2022-12-16T12:36:06.496Z,-0.90
2022-12-16T12:39:02.149Z,-0.70
2022-12-16T12:42:01.571Z,-0.80
2022-12-16T12:44:48.721Z,-0.80
2022-12-16T12:47:37.319Z,-0.70
2022-12-16T12:50:48.510Z,-0.60
2022-12-16T12:53:48.620Z,-0.70
2022-12-16T12:56:59.207Z,-0.70
2022-12-16T12:59:57.287Z,-0.60
2022-12-16T13:02:50.906Z,-0.70
2022-12-16T13:05:37.128Z,-0.70
2022-12-16T13:08:56.717Z,-0.70
2022-12-16T13:11:42.882Z,-0.60
2022-12-16T13:14:50.109Z,-0.70
2022-12-16T13:17:41.268Z,-0.60
2022-12-16T13:20:51.536Z,-0.60
2022-12-16T13:23:50.993Z,-0.60
2022-12-16T13:26:39.436Z,-0.50
2022-12-16T13:29:33.559Z,-0.50
2022-12-16T13:32:34.151Z,-0.50
2022-12-16T13:35:22.615Z,-0.60
2022-12-16T13:38:21.562Z,-0.60
2022-12-16T13:41:08.199Z,-0.50
2022-12-16T13:44:02.585Z,-0.50
2022-12-16T13:50:52.060Z,-0.40
2022-12-16T13:53:39.684Z,-0.40
2022-12-16T13:56:26.367Z,-0.40
2022-12-16T13:59:17.284Z,-0.40
2022-12-16T14:02:05.706Z,-0.30
2022-12-16T14:04:58.744Z,-0.30
2022-12-16T14:07:45.835Z,-0.30
2022-12-16T14:10:48.653Z,-0.40
2022-12-16T14:13:38.953Z,-0.30
2022-12-16T14:16:33.764Z,-0.50
2022-12-16T14:19:44.867Z,-0.50
2022-12-16T14:22:45.262Z,-0.50
2022-12-16T14:25:37.585Z,-0.50
2022-12-16T14:28:49.481Z,-0.40
2022-12-16T14:31:46.325Z,-0.50
2022-12-16T14:34:38.670Z,-0.50
2022-12-16T14:37:56.512Z,-0.40
2022-12-16T14:40:48.775Z,-0.40
2022-12-16T14:43:42.751Z,-0.30
2022-12-16T14:46:51.011Z,-0.20
2022-12-16T14:49:45.748Z,-0.20
2022-12-16T14:52:41.381Z,-0.30
2022-12-16T14:55:44.389Z,-0.20
2022-12-16T14:58:34.591Z,-0.20
2022-12-16T15:01:29.245Z,-0.20
2022-12-16T15:04:17.230Z,-0.20
2022-12-16T15:07:09.284Z,-0.20
2022-12-16T15:10:06.960Z,-0.20
2022-12-16T15:13:24.417Z,-0.10
2022-12-16T15:16:10.882Z,-0.20
2022-12-16T15:19:05.250Z,-0.10
2022-12-16T15:21:54.446Z,-0.10
2022-12-16T15:24:44.979Z,-0.20
2022-12-16T15:27:41.378Z,-0.20
2022-12-16T15:30:53.893Z,-0.10
2022-12-16T15:33:50.651Z,0.00
2022-12-16T15:36:45.201Z,0.00
2022-12-16T15:39:42.185Z,0.00
2022-12-16T15:42:40.166Z,0.00
2022-12-16T15:45:50.833Z,0.10
2022-12-16T15:48:42.253Z,0.00
2022-12-16T15:51:58.739Z,0.00
2022-12-16T15:54:44.390Z,0.00
2022-12-16T15:57:50.980Z,0.00
2022-12-16T16:00:51.556Z,-0.10
2022-12-16T16:03:47.562Z,-0.20
2022-12-16T16:06:37.687Z,-0.20
2022-12-16T16:09:45.826Z,-0.10
2022-12-16T16:12:34.441Z,0.00
2022-12-16T16:15:20.653Z,-0.10
2022-12-16T16:18:09.377Z,0.00
2022-12-16T16:20:54.558Z,-0.10
2022-12-16T16:23:39.994Z,-0.20
2022-12-16T16:26:25.405Z,0.00
2022-12-16T16:29:10.866Z,-0.10
2022-12-16T16:32:02.294Z,-0.10
2022-12-16T16:34:59.881Z,0.00
2022-12-16T16:37:45.111Z,-0.10
2022-12-16T16:40:54.335Z,-0.10
2022-12-16T16:43:40.372Z,-0.10
2022-12-16T16:46:47.793Z,-0.20
2022-12-16T16:49:43.238Z,-0.10
2022-12-16T16:52:33.736Z,-0.10
2022-12-16T16:55:19.505Z,-0.10
2022-12-16T16:58:04.881Z,-0.20
2022-12-16T17:00:53.507Z,-0.20
2022-12-16T17:03:40.250Z,-0.10
2022-12-16T17:06:26.489Z,-0.10
2022-12-16T17:09:11.832Z,-0.30
2022-12-16T17:11:59.214Z,-0.20
2022-12-16T17:14:45.128Z,-0.20
2022-12-16T17:17:30.951Z,-0.20
2022-12-16T17:20:16.620Z,-0.20
2022-12-16T17:23:02.240Z,-0.20
2022-12-16T17:25:47.884Z,-0.30
2022-12-16T17:28:33.110Z,-0.40
2022-12-16T17:31:18.759Z,-0.60
2022-12-16T17:34:04.342Z,-0.40
2022-12-16T17:36:49.781Z,-0.50
2022-12-16T17:39:35.474Z,-0.30
2022-12-16T17:42:21.174Z,-0.30
2022-12-16T17:45:19.052Z,-0.50
2022-12-16T17:51:15.348Z,-0.50
2022-12-16T17:54:13.249Z,-0.60
2022-12-16T18:03:47.338Z,-0.40
2022-12-16T18:07:15.929Z,-0.40
2022-12-16T18:10:00.115Z,-0.50
2022-12-16T18:12:46.219Z,-0.30
2022-12-16T18:15:43.556Z,-0.40
2022-12-16T18:21:38.316Z,-0.50
2022-12-16T18:24:27.857Z,-0.30
2022-12-16T18:27:13.239Z,-0.20
2022-12-16T18:29:58.557Z,-0.30
2022-12-16T18:32:43.926Z,-0.30
2022-12-16T18:35:29.483Z,-0.30
2022-12-16T18:38:16.693Z,-0.20
2022-12-16T18:41:02.937Z,-0.30
2022-12-16T18:43:48.605Z,-0.30
2022-12-16T18:46:34.232Z,-0.20
2022-12-16T18:49:19.710Z,-0.20
2022-12-16T18:52:05.290Z,-0.20
2022-12-16T18:54:50.827Z,-0.30
2022-12-16T18:57:39.615Z,-0.20
2022-12-16T19:00:26.600Z,-0.20
2022-12-16T19:03:12.205Z,-0.20
2022-12-16T19:05:57.490Z,-0.40
2022-12-16T19:08:42.851Z,-0.40
2022-12-16T19:11:28.368Z,-0.40
2022-12-16T19:14:13.624Z,-0.30
2022-12-16T19:16:59.190Z,-0.30
2022-12-16T19:19:44.639Z,-0.30
2022-12-16T19:22:29.924Z,-0.40
2022-12-16T19:25:16.075Z,-0.50
2022-12-16T19:28:02.101Z,-0.50
2022-12-16T19:30:47.391Z,-0.40
2022-12-16T19:33:33.341Z,-0.50
2022-12-16T19:36:19.007Z,-0.50
2022-12-16T19:39:04.992Z,-0.40
2022-12-16T19:41:50.551Z,-0.50
2022-12-16T19:44:37.400Z,-0.50
2022-12-16T19:47:23.047Z,-0.40
2022-12-16T19:50:08.454Z,-0.50
2022-12-16T19:52:56.083Z,-0.40
2022-12-16T19:55:41.452Z,-0.40
2022-12-16T19:58:27.010Z,-0.40
2022-12-16T20:01:12.467Z,-0.40
2022-12-16T20:03:58.153Z,-0.60
2022-12-16T20:06:43.552Z,-0.40
2022-12-16T20:09:29.181Z,-0.50
2022-12-16T20:12:14.835Z,-0.40
2022-12-16T20:15:00.372Z,-0.40
2022-12-16T20:17:45.523Z,-0.40
2022-12-16T20:20:31.207Z,-0.50
2022-12-16T20:23:16.563Z,-0.50
2022-12-16T20:26:02.150Z,-0.60
2022-12-16T20:28:47.635Z,-0.60
2022-12-16T20:31:32.873Z,-0.50
2022-12-16T20:34:18.332Z,-0.50
2022-12-16T20:37:05.088Z,-0.50
2022-12-16T20:39:56.731Z,-0.60
2022-12-16T20:42:43.577Z,-0.60
2022-12-16T20:45:29.815Z,-0.50
2022-12-16T20:48:15.393Z,-0.40
2022-12-16T20:51:01.125Z,-0.50
2022-12-16T20:53:46.813Z,-0.50
2022-12-16T20:56:32.114Z,-0.40
2022-12-16T20:59:17.592Z,-0.60
2022-12-16T21:05:12.013Z,-0.50
2022-12-16T21:07:57.523Z,-0.50
2022-12-16T21:10:43.452Z,-0.40
2022-12-16T21:13:31.446Z,-0.70
2022-12-16T21:16:20.253Z,-0.80
2022-12-16T21:19:06.469Z,-0.60
2022-12-16T21:21:52.052Z,-0.50
2022-12-16T21:24:37.730Z,-0.50
2022-12-16T21:27:23.349Z,-0.60
2022-12-16T21:30:08.763Z,-0.60
2022-12-16T21:32:55.007Z,-0.50
2022-12-16T21:35:42.244Z,-0.50
2022-12-16T21:38:29.456Z,-0.40
2022-12-16T21:41:15.438Z,-0.40
2022-12-16T21:44:00.825Z,-0.40
2022-12-16T21:46:46.565Z,-0.40
2022-12-16T21:49:32.249Z,-0.50
2022-12-16T21:52:17.856Z,-0.50
2022-12-16T21:55:03.215Z,-0.40
2022-12-16T21:57:48.704Z,-0.40
2022-12-16T22:00:34.390Z,-0.60
2022-12-16T22:03:19.949Z,-0.50
2022-12-16T22:06:05.350Z,-0.40
2022-12-16T22:08:53.775Z,-0.60
2022-12-16T22:11:41.783Z,-0.70
2022-12-16T22:14:27.161Z,-0.70
2022-12-16T22:17:12.661Z,-0.70
2022-12-16T22:19:58.298Z,-0.70
2022-12-16T22:22:43.580Z,-0.60
2022-12-16T22:25:31.460Z,-0.40
2022-12-16T22:28:16.755Z,-0.50
2022-12-16T22:31:02.197Z,-0.30
2022-12-16T22:33:51.804Z,-0.10
2022-12-16T22:36:40.104Z,-0.20
2022-12-16T22:39:25.653Z,-0.40
2022-12-16T22:42:11.149Z,-0.30
2022-12-16T22:44:56.670Z,-0.20
2022-12-16T22:47:42.052Z,-0.20
2022-12-16T22:50:28.442Z,-0.20
2022-12-16T22:53:13.762Z,-0.20
2022-12-16T22:56:02.149Z,-0.20
2022-12-16T22:58:47.891Z,-0.30
2022-12-16T23:01:33.414Z,-0.20
2022-12-16T23:04:23.455Z,-0.20
2022-12-16T23:07:11.717Z,0.00
2022-12-16T23:09:57.360Z,-0.20
2022-12-16T23:12:43.208Z,-0.10
2022-12-16T23:15:32.583Z,0.10
2022-12-16T23:18:18.618Z,0.00
2022-12-16T23:21:07.362Z,0.00
2022-12-16T23:23:56.881Z,0.00
2022-12-16T23:26:42.468Z,-0.20
2022-12-16T23:29:28.121Z,-0.40
2022-12-16T23:32:13.524Z,-0.60
2022-12-16T23:34:58.970Z,-0.50
2022-12-16T23:37:44.472Z,0.10
2022-12-16T23:40:30.398Z,0.10
2022-12-16T23:43:15.921Z,0.00
2022-12-16T23:46:04.613Z,0.10
2022-12-16T23:48:53.523Z,-0.20
2022-12-16T23:51:39.266Z,-0.20
2022-12-16T23:54:24.838Z,-0.20
2022-12-16T23:57:10.589Z,-0.20
2022-12-16T23:59:56.414Z,-0.40
